createdAt,value
2016-04-27T00:00:37.591Z,15.91
2016-04-27T00:01:37.859Z,15.91
2016-04-27T00:02:37.518Z,15.96
2016-04-27T00:03:37.458Z,15.99
2016-04-27T00:04:40.602Z,15.96
2016-04-27T00:05:37.776Z,15.88
2016-04-27T00:06:37.279Z,15.91
2016-04-27T00:07:37.250Z,15.92
2016-04-27T00:08:37.191Z,15.98
2016-04-27T00:09:37.162Z,15.91
2016-04-27T00:10:37.117Z,15.92
2016-04-27T00:11:39.761Z,15.94
2016-04-27T00:12:40.029Z,15.94
2016-04-27T00:13:36.970Z,16.03
2016-04-27T00:14:36.925Z,15.92
2016-04-27T00:15:39.850Z,15.92
2016-04-27T00:16:36.821Z,16.02
2016-04-27T00:17:36.761Z,15.9
2016-04-27T00:18:36.764Z,15.96
2016-04-27T00:19:36.875Z,15.99
2016-04-27T00:20:36.629Z,15.99
2016-04-27T00:21:36.819Z,16.05
2016-04-27T00:22:36.541Z,15.96
2016-04-27T00:23:36.497Z,16
2016-04-27T00:24:36.421Z,15.98
2016-04-27T00:25:36.580Z,16.08
2016-04-27T00:26:39.363Z,16.02
2016-04-27T00:27:36.288Z,15.98
2016-04-27T00:28:36.244Z,16.02
2016-04-27T00:29:36.216Z,16.02
2016-04-27T00:30:36.155Z,16.03
2016-04-27T00:31:36.096Z,16.1
2016-04-27T00:32:36.068Z,15.98
2016-04-27T00:33:36.211Z,15.96
2016-04-27T00:34:35.948Z,16.08
2016-04-27T00:35:35.982Z,16.05
2016-04-27T00:36:36.281Z,16.05
2016-04-27T00:37:35.799Z,16.03
2016-04-27T00:38:35.756Z,16.03
2016-04-27T00:39:35.726Z,15.98
2016-04-27T00:40:39.468Z,16
2016-04-27T00:41:35.657Z,16.05
2016-04-27T00:42:35.619Z,16.03
2016-04-27T00:43:35.377Z,16.03
2016-04-27T00:44:45.707Z,16.06
2016-04-27T00:45:35.434Z,16
2016-04-27T00:46:35.359Z,16.06
2016-04-27T00:47:35.314Z,15.99
2016-04-27T00:48:35.332Z,15.98
2016-04-27T00:49:35.210Z,16.09
2016-04-27T00:50:38.370Z,16.02
2016-04-27T00:51:34.934Z,16.05
2016-04-27T00:52:35.406Z,16.06
2016-04-27T00:53:35.033Z,15.98
2016-04-27T00:54:35.004Z,16.03
2016-04-27T00:55:34.929Z,16
2016-04-27T00:56:37.886Z,15.99
2016-04-27T00:57:34.856Z,16.02
2016-04-27T00:58:34.796Z,16.06
2016-04-27T00:59:34.753Z,16.08
2016-04-27T01:00:37.989Z,16.02
2016-04-27T01:01:35.055Z,16.08
2016-04-27T01:02:34.605Z,16.03
2016-04-27T01:03:34.544Z,16.02
2016-04-27T01:04:34.703Z,16.03
2016-04-27T01:05:34.440Z,16.03
2016-04-27T01:06:42.709Z,16.02
2016-04-27T01:07:34.555Z,15.99
2016-04-27T01:08:34.292Z,16.03
2016-04-27T01:09:34.233Z,15.99
2016-04-27T01:10:34.204Z,16.08
2016-04-27T01:11:34.159Z,16.08
2016-04-27T01:12:37.162Z,16.03
2016-04-27T01:13:34.071Z,16.05
2016-04-27T01:14:34.027Z,16.03
2016-04-27T01:15:36.982Z,16.03
2016-04-27T01:16:33.954Z,16.03
2016-04-27T01:17:33.848Z,16.06
2016-04-27T01:18:33.819Z,16.12
2016-04-27T01:19:33.775Z,16.1
2016-04-27T01:20:33.731Z,16.08
2016-04-27T01:21:33.842Z,16.09
2016-04-27T01:22:33.726Z,16.03
2016-04-27T01:23:33.589Z,16.03
2016-04-27T01:24:33.561Z,16.05
2016-04-27T01:25:36.502Z,16.06
2016-04-27T01:26:33.489Z,16.03
2016-04-27T01:27:33.382Z,16.09
2016-04-27T01:28:33.338Z,16.17
2016-04-27T01:29:33.294Z,16.03
2016-04-27T01:30:33.234Z,16.13
2016-04-27T01:31:33.190Z,16.16
2016-04-27T01:32:36.380Z,16.03
2016-04-27T01:33:33.102Z,16.03
2016-04-27T01:34:33.058Z,16.06
2016-04-27T01:35:33.013Z,16.1
2016-04-27T01:36:34.766Z,16.1
2016-04-27T01:37:32.894Z,16.06
2016-04-27T01:38:32.834Z,16.09
2016-04-27T01:39:33.118Z,16.1
2016-04-27T01:40:32.745Z,16.03
2016-04-27T01:41:32.717Z,16.09
2016-04-27T01:42:32.673Z,16.06
2016-04-27T01:43:35.597Z,16.09
2016-04-27T01:44:32.553Z,16.03
2016-04-27T01:45:32.524Z,16.06
2016-04-27T01:46:32.762Z,16.09
2016-04-27T01:47:32.404Z,16.09
2016-04-27T01:48:32.376Z,16.13
2016-04-27T01:49:35.521Z,16.12
2016-04-27T01:50:35.305Z,16.09
2016-04-27T01:51:32.104Z,16.03
2016-04-27T01:52:35.419Z,16.06
2016-04-27T01:53:32.141Z,16.1
2016-04-27T01:54:32.096Z,16.03
2016-04-27T01:55:35.051Z,16.09
2016-04-27T01:56:31.993Z,16.06
2016-04-27T01:57:31.948Z,15.99
2016-04-27T01:58:31.904Z,16.06
2016-04-27T01:59:31.844Z,16.06
2016-04-27T02:00:31.784Z,16.06
2016-04-27T02:01:34.740Z,16.13
2016-04-27T02:02:31.681Z,16.03
2016-04-27T02:03:34.870Z,16.03
2016-04-27T02:04:31.795Z,16.03
2016-04-27T02:05:34.751Z,16.05
2016-04-27T02:06:36.582Z,16.08
2016-04-27T02:07:34.491Z,16.13
2016-04-27T02:08:34.416Z,16.09
2016-04-27T02:09:31.559Z,16.1
2016-04-27T02:10:31.312Z,16.06
2016-04-27T02:11:31.299Z,16.02
2016-04-27T02:12:31.222Z,16.09
2016-04-27T02:13:34.194Z,16.08
2016-04-27T02:14:31.322Z,16.1
2016-04-27T02:15:31.137Z,16.06
2016-04-27T02:16:31.030Z,16.12
2016-04-27T02:17:31.002Z,16.09
2016-04-27T02:18:30.943Z,16.1
2016-04-27T02:19:30.866Z,16.06
2016-04-27T02:20:30.823Z,16.06
2016-04-27T02:21:30.857Z,16.1
2016-04-27T02:22:31.125Z,16.08
2016-04-27T02:23:30.659Z,16.12
2016-04-27T02:24:30.646Z,16.17
2016-04-27T02:25:30.587Z,16.13
2016-04-27T02:26:30.558Z,16.09
2016-04-27T02:27:30.497Z,16.1
2016-04-27T02:28:33.453Z,16.1
2016-04-27T02:29:30.394Z,16.1
2016-04-27T02:30:30.443Z,16.16
2016-04-27T02:31:30.305Z,16.16
2016-04-27T02:32:30.245Z,16.17
2016-04-27T02:33:30.217Z,16.12
2016-04-27T02:34:30.157Z,16.12
2016-04-27T02:35:30.113Z,16.09
2016-04-27T02:36:30.507Z,16.09
2016-04-27T02:37:33.024Z,16.16
2016-04-27T02:38:29.965Z,16.12
2016-04-27T02:39:29.920Z,16.17
2016-04-27T02:40:30.158Z,16.17
2016-04-27T02:41:29.817Z,16.18
2016-04-27T02:42:29.765Z,16.16
2016-04-27T02:43:29.762Z,16.13
2016-04-27T02:44:29.774Z,16.17
2016-04-27T02:45:29.774Z,16.17
2016-04-27T02:46:29.739Z,16.18
2016-04-27T02:47:29.747Z,16.16
2016-04-27T02:48:29.704Z,16.12
2016-04-27T02:49:29.722Z,16.16
2016-04-27T02:50:29.631Z,16.17
2016-04-27T02:51:32.492Z,16.17
2016-04-27T02:52:29.571Z,16.12
2016-04-27T02:53:29.533Z,16.13
2016-04-27T02:54:29.477Z,16.18
2016-04-27T02:55:29.439Z,16.18
2016-04-27T02:56:29.587Z,16.22
2016-04-27T02:57:29.345Z,16.21
2016-04-27T02:58:29.318Z,16.17
2016-04-27T02:59:29.261Z,16.16
2016-04-27T03:00:29.218Z,16.22
2016-04-27T03:01:29.160Z,16.17
2016-04-27T03:02:29.180Z,16.12
2016-04-27T03:03:29.074Z,16.1
2016-04-27T03:04:29.094Z,16.13
2016-04-27T03:05:29.003Z,16.09
2016-04-27T03:06:29.007Z,16.22
2016-04-27T03:07:32.057Z,16.12
2016-04-27T03:08:28.825Z,16.21
2016-04-27T03:09:28.798Z,16.12
2016-04-27T03:10:28.753Z,16.17
2016-04-27T03:11:28.709Z,16.17
2016-04-27T03:12:28.651Z,16.21
2016-04-27T03:13:32.107Z,16.17
2016-04-27T03:14:31.562Z,16.18
2016-04-27T03:15:28.486Z,16.22
2016-04-27T03:16:31.458Z,16.12
2016-04-27T03:17:31.414Z,16.18
2016-04-27T03:18:31.385Z,16.13
2016-04-27T03:19:28.294Z,16.21
2016-04-27T03:20:31.281Z,16.22
2016-04-27T03:21:28.284Z,16.16
2016-04-27T03:22:28.974Z,16.17
2016-04-27T03:23:28.321Z,16.17
2016-04-27T03:24:28.058Z,16.21
2016-04-27T03:25:31.045Z,16.16
2016-04-27T03:26:27.985Z,16.18
2016-04-27T03:27:27.924Z,16.13
2016-04-27T03:28:28.256Z,16.13
2016-04-27T03:29:27.837Z,16.18
2016-04-27T03:30:27.777Z,16.21
2016-04-27T03:31:27.733Z,16.16
2016-04-27T03:32:30.704Z,16.13
2016-04-27T03:33:27.879Z,16.09
2016-04-27T03:34:27.585Z,16.1
2016-04-27T03:35:27.540Z,16.16
2016-04-27T03:36:29.637Z,16.22
2016-04-27T03:37:27.640Z,16.25
2016-04-27T03:38:27.611Z,16.18
2016-04-27T03:39:27.332Z,16.16
2016-04-27T03:40:27.304Z,16.22
2016-04-27T03:41:27.275Z,16.22
2016-04-27T03:42:30.184Z,16.24
2016-04-27T03:43:30.187Z,16.18
2016-04-27T03:44:27.095Z,16.17
2016-04-27T03:45:30.130Z,16.21
2016-04-27T03:46:27.039Z,16.17
2016-04-27T03:47:26.995Z,16.21
2016-04-27T03:48:26.919Z,16.25
2016-04-27T03:49:30.078Z,16.21
2016-04-27T03:50:26.814Z,16.21
2016-04-27T03:51:26.725Z,16.18
2016-04-27T03:52:27.664Z,16.24
2016-04-27T03:53:26.683Z,16.21
2016-04-27T03:54:26.623Z,16.22
2016-04-27T03:55:26.594Z,16.22
2016-04-27T03:56:26.535Z,16.17
2016-04-27T03:57:26.474Z,16.21
2016-04-27T03:58:26.415Z,16.22
2016-04-27T03:59:26.418Z,16.21
2016-04-27T04:00:26.545Z,16.21
2016-04-27T04:01:26.282Z,16.24
2016-04-27T04:02:26.551Z,16.18
2016-04-27T04:03:29.194Z,16.21
2016-04-27T04:04:26.352Z,16.22
2016-04-27T04:05:26.106Z,16.24
2016-04-27T04:06:25.905Z,16.25
2016-04-27T04:07:26.205Z,16.17
2016-04-27T04:08:26.021Z,16.21
2016-04-27T04:09:25.914Z,16.26
2016-04-27T04:10:28.838Z,16.25
2016-04-27T04:11:31.827Z,16.28
2016-04-27T04:12:28.813Z,16.17
2016-04-27T04:13:25.706Z,16.21
2016-04-27T04:14:25.974Z,16.17
2016-04-27T04:15:25.633Z,16.16
2016-04-27T04:16:25.885Z,16.1
2016-04-27T04:17:25.530Z,16.12
2016-04-27T04:18:25.485Z,16.24
2016-04-27T04:19:25.441Z,16.17
2016-04-27T04:20:25.382Z,16.13
2016-04-27T04:21:26.759Z,16.13
2016-04-27T04:22:25.281Z,16.12
2016-04-27T04:23:25.236Z,16.17
2016-04-27T04:24:30.911Z,16.1
2016-04-27T04:25:25.163Z,16.17
2016-04-27T04:26:25.089Z,16.21
2016-04-27T04:27:25.091Z,16.21
2016-04-27T04:28:25.297Z,16.16
2016-04-27T04:29:25.097Z,16.24
2016-04-27T04:30:24.913Z,16.22
2016-04-27T04:31:24.837Z,16.17
2016-04-27T04:32:24.996Z,16.24
2016-04-27T04:33:24.746Z,16.18
2016-04-27T04:34:24.701Z,16.17
2016-04-27T04:35:24.657Z,16.24
2016-04-27T04:36:24.456Z,16.18
2016-04-27T04:37:24.709Z,16.25
2016-04-27T04:38:24.509Z,16.21
2016-04-27T04:39:24.449Z,16.17
2016-04-27T04:40:24.389Z,16.21
2016-04-27T04:41:24.376Z,16.22
2016-04-27T04:42:24.317Z,16.21
2016-04-27T04:43:24.256Z,16.22
2016-04-27T04:44:24.323Z,16.18
2016-04-27T04:45:27.171Z,16.17
2016-04-27T04:46:24.125Z,16.24
2016-04-27T04:47:24.064Z,16.17
2016-04-27T04:48:24.020Z,16.18
2016-04-27T04:49:23.961Z,16.21
2016-04-27T04:50:23.931Z,16.18
2016-04-27T04:51:23.872Z,16.16
2016-04-27T04:52:23.828Z,16.21
2016-04-27T04:53:23.768Z,16.17
2016-04-27T04:54:23.725Z,16.17
2016-04-27T04:55:23.711Z,16.22
2016-04-27T04:56:24.416Z,16.21
2016-04-27T04:57:23.591Z,16.16
2016-04-27T04:58:23.532Z,16.16
2016-04-27T04:59:23.487Z,16.24
2016-04-27T05:00:26.443Z,16.22
2016-04-27T05:01:23.384Z,16.22
2016-04-27T05:02:23.355Z,16.21
2016-04-27T05:03:23.358Z,16.22
2016-04-27T05:04:26.438Z,16.24
2016-04-27T05:05:26.207Z,16.21
2016-04-27T05:06:31.415Z,16.25
2016-04-27T05:07:23.102Z,16.26
2016-04-27T05:08:23.059Z,16.22
2016-04-27T05:09:22.998Z,16.25
2016-04-27T05:10:22.970Z,16.28
2016-04-27T05:11:26.817Z,16.18
2016-04-27T05:12:22.882Z,16.26
2016-04-27T05:13:26.026Z,16.32
2016-04-27T05:14:22.762Z,16.24
2016-04-27T05:15:22.734Z,16.26
2016-04-27T05:16:22.673Z,16.26
2016-04-27T05:17:22.614Z,16.18
2016-04-27T05:18:25.600Z,16.25
2016-04-27T05:19:22.541Z,16.31
2016-04-27T05:20:22.466Z,16.22
2016-04-27T05:21:22.437Z,16.21
2016-04-27T05:22:22.378Z,16.25
2016-04-27T05:23:22.333Z,16.25
2016-04-27T05:24:22.289Z,16.26
2016-04-27T05:25:25.244Z,16.24
2016-04-27T05:26:22.185Z,16.25
2016-04-27T05:27:22.219Z,16.26
2016-04-27T05:28:22.096Z,16.24
2016-04-27T05:29:22.037Z,16.26
2016-04-27T05:30:21.977Z,16.18
2016-04-27T05:31:21.949Z,16.24
2016-04-27T05:32:24.920Z,16.22
2016-04-27T05:33:30.894Z,16.26
2016-04-27T05:34:21.785Z,16.22
2016-04-27T05:35:24.771Z,16.22
2016-04-27T05:36:21.899Z,16.25
2016-04-27T05:37:21.558Z,16.24
2016-04-27T05:38:21.608Z,16.22
2016-04-27T05:39:21.579Z,16.32
2016-04-27T05:40:24.520Z,16.31
2016-04-27T05:41:21.476Z,16.26
2016-04-27T05:42:21.431Z,16.32
2016-04-27T05:43:21.371Z,16.26
2016-04-27T05:44:21.530Z,16.25
2016-04-27T05:45:21.283Z,16.25
2016-04-27T05:46:24.286Z,16.21
2016-04-27T05:47:21.179Z,16.22
2016-04-27T05:48:21.135Z,16.21
2016-04-27T05:49:21.075Z,16.25
2016-04-27T05:50:21.062Z,16.22
2016-04-27T05:51:24.002Z,16.16
2016-04-27T05:52:25.098Z,16.26
2016-04-27T05:53:20.883Z,16.26
2016-04-27T05:54:21.026Z,16.24
2016-04-27T05:55:20.778Z,16.25
2016-04-27T05:56:21.063Z,16.18
2016-04-27T05:57:20.706Z,16.29
2016-04-27T05:58:20.647Z,16.24
2016-04-27T05:59:20.602Z,16.22
2016-04-27T06:00:20.574Z,16.22
2016-04-27T06:01:20.497Z,16.22
2016-04-27T06:02:20.454Z,16.22
2016-04-27T06:03:20.410Z,16.22
2016-04-27T06:04:20.350Z,16.21
2016-04-27T06:05:23.321Z,16.25
2016-04-27T06:06:20.277Z,16.28
2016-04-27T06:07:20.763Z,16.25
2016-04-27T06:08:20.157Z,16.22
2016-04-27T06:09:23.316Z,16.21
2016-04-27T06:10:20.084Z,16.22
2016-04-27T06:11:20.041Z,16.21
2016-04-27T06:12:19.996Z,16.21
2016-04-27T06:13:19.984Z,16.13
2016-04-27T06:14:28.877Z,16.22
2016-04-27T06:15:19.848Z,16.18
2016-04-27T06:16:19.773Z,16.16
2016-04-27T06:17:19.728Z,16.18
2016-04-27T06:18:19.700Z,16.22
2016-04-27T06:19:19.656Z,16.21
2016-04-27T06:20:19.595Z,16.25
2016-04-27T06:21:19.584Z,16.25
2016-04-27T06:22:19.601Z,16.28
2016-04-27T06:23:19.745Z,16.22
2016-04-27T06:24:19.404Z,16.25
2016-04-27T06:25:19.344Z,16.28
2016-04-27T06:26:19.315Z,16.25
2016-04-27T06:27:19.255Z,16.28
2016-04-27T06:28:19.242Z,16.25
2016-04-27T06:29:19.152Z,16.29
2016-04-27T06:30:22.122Z,16.29
2016-04-27T06:31:19.047Z,16.26
2016-04-27T06:32:19.019Z,16.26
2016-04-27T06:33:18.974Z,16.26
2016-04-27T06:34:18.915Z,16.28
2016-04-27T06:35:18.902Z,16.28
2016-04-27T06:36:18.216Z,16.32
2016-04-27T06:37:18.501Z,16.31
2016-04-27T06:38:21.721Z,16.22
2016-04-27T06:39:18.694Z,16.28
2016-04-27T06:40:24.649Z,16.22
2016-04-27T06:41:18.590Z,16.24
2016-04-27T06:42:18.562Z,16.26
2016-04-27T06:43:18.689Z,16.21
2016-04-27T06:44:18.442Z,16.28
2016-04-27T06:45:18.382Z,16.24
2016-04-27T06:46:18.353Z,16.26
2016-04-27T06:47:21.621Z,16.28
2016-04-27T06:48:18.234Z,16.24
2016-04-27T06:49:18.190Z,16.32
2016-04-27T06:50:21.365Z,16.28
2016-04-27T06:51:18.101Z,16.29
2016-04-27T06:52:18.072Z,16.28
2016-04-27T06:53:18.013Z,16.28
2016-04-27T06:54:20.937Z,16.26
2016-04-27T06:55:17.925Z,16.26
2016-04-27T06:56:20.255Z,16.26
2016-04-27T06:57:17.820Z,16.21
2016-04-27T06:58:18.261Z,16.25
2016-04-27T06:59:17.764Z,16.21
2016-04-27T07:00:17.750Z,16.24
2016-04-27T07:01:20.613Z,16.25
2016-04-27T07:02:17.569Z,16.26
2016-04-27T07:03:17.539Z,16.25
2016-04-27T07:04:17.480Z,16.25
2016-04-27T07:05:17.560Z,16.22
2016-04-27T07:06:17.391Z,16.25
2016-04-27T07:07:17.222Z,16.26
2016-04-27T07:08:20.303Z,16.25
2016-04-27T07:09:20.244Z,16.22
2016-04-27T07:10:17.199Z,16.24
2016-04-27T07:11:17.358Z,16.18
2016-04-27T07:12:17.096Z,16.25
2016-04-27T07:13:17.066Z,16.22
2016-04-27T07:14:16.991Z,16.22
2016-04-27T07:15:17.025Z,16.22
2016-04-27T07:16:19.903Z,16.22
2016-04-27T07:17:16.843Z,16.26
2016-04-27T07:18:17.018Z,16.18
2016-04-27T07:19:20.052Z,16.26
2016-04-27T07:20:16.726Z,16.18
2016-04-27T07:21:16.651Z,16.24
2016-04-27T07:22:17.294Z,16.17
2016-04-27T07:23:19.593Z,16.24
2016-04-27T07:24:19.752Z,16.18
2016-04-27T07:25:16.474Z,16.18
2016-04-27T07:26:16.508Z,16.21
2016-04-27T07:27:16.588Z,16.26
2016-04-27T07:28:16.529Z,16.25
2016-04-27T07:29:16.266Z,16.25
2016-04-27T07:30:16.205Z,16.28
2016-04-27T07:31:16.162Z,16.26
2016-04-27T07:32:19.149Z,16.25
2016-04-27T07:33:16.105Z,16.22
2016-04-27T07:34:16.045Z,16.25
2016-04-27T07:35:15.985Z,16.28
2016-04-27T07:36:15.941Z,16.28
2016-04-27T07:37:17.085Z,16.26
2016-04-27T07:38:15.852Z,16.21
2016-04-27T07:39:15.808Z,16.25
2016-04-27T07:40:16.186Z,16.24
2016-04-27T07:41:15.720Z,16.24
2016-04-27T07:42:15.660Z,16.28
2016-04-27T07:43:15.632Z,16.28
2016-04-27T07:44:15.588Z,16.28
2016-04-27T07:45:15.762Z,16.28
2016-04-27T07:46:15.498Z,16.26
2016-04-27T07:47:15.455Z,16.32
2016-04-27T07:48:15.365Z,16.22
2016-04-27T07:49:15.413Z,16.26
2016-04-27T07:50:15.276Z,16.22
2016-04-27T07:51:15.278Z,16.25
2016-04-27T07:52:14.968Z,16.28
2016-04-27T07:53:15.549Z,16.26
2016-04-27T07:54:15.083Z,16.22
2016-04-27T07:55:15.336Z,16.25
2016-04-27T07:56:15.057Z,16.26
2016-04-27T07:57:14.950Z,16.26
2016-04-27T07:58:15.078Z,16.29
2016-04-27T07:59:14.830Z,16.29
2016-04-27T08:00:14.864Z,16.28
2016-04-27T08:01:14.758Z,16.29
2016-04-27T08:02:14.761Z,16.34
2016-04-27T08:03:14.655Z,16.28
2016-04-27T08:04:14.610Z,16.28
2016-04-27T08:05:14.550Z,16.25
2016-04-27T08:06:14.505Z,16.29
2016-04-27T08:07:16.478Z,16.21
2016-04-27T08:08:14.308Z,16.22
2016-04-27T08:09:17.264Z,16.22
2016-04-27T08:10:14.313Z,16.29
2016-04-27T08:11:14.285Z,16.26
2016-04-27T08:12:14.335Z,16.26
2016-04-27T08:13:17.227Z,16.29
2016-04-27T08:14:14.137Z,16.31
2016-04-27T08:15:14.077Z,16.32
2016-04-27T08:16:14.018Z,16.29
2016-04-27T08:17:13.973Z,16.22
2016-04-27T08:18:13.991Z,16.18
2016-04-27T08:19:13.868Z,16.25
2016-04-27T08:20:13.857Z,16.24
2016-04-27T08:21:13.812Z,16.25
2016-04-27T08:22:13.737Z,16.24
2016-04-27T08:23:13.599Z,16.26
2016-04-27T08:24:13.664Z,16.25
2016-04-27T08:25:13.573Z,16.24
2016-04-27T08:26:13.544Z,16.21
2016-04-27T08:27:13.500Z,16.28
2016-04-27T08:28:13.455Z,16.22
2016-04-27T08:29:13.412Z,16.26
2016-04-27T08:30:13.383Z,16.26
2016-04-27T08:31:13.308Z,16.18
2016-04-27T08:32:13.264Z,16.28
2016-04-27T08:33:13.232Z,16.21
2016-04-27T08:34:13.251Z,16.28
2016-04-27T08:35:13.113Z,16.26
2016-04-27T08:36:13.083Z,16.28
2016-04-27T08:37:13.931Z,16.25
2016-04-27T08:38:13.058Z,16.25
2016-04-27T08:39:12.967Z,16.31
2016-04-27T08:40:13.079Z,16.26
2016-04-27T08:41:12.847Z,16.26
2016-04-27T08:42:12.772Z,16.26
2016-04-27T08:43:12.743Z,16.31
2016-04-27T08:44:15.668Z,16.26
2016-04-27T08:45:12.623Z,16.25
2016-04-27T08:46:12.580Z,16.28
2016-04-27T08:47:12.551Z,16.22
2016-04-27T08:48:15.475Z,16.26
2016-04-27T08:49:12.666Z,16.26
2016-04-27T08:50:12.403Z,16.21
2016-04-27T08:51:12.359Z,16.24
2016-04-27T08:52:12.190Z,16.26
2016-04-27T08:53:12.317Z,16.22
2016-04-27T08:54:15.242Z,16.25
2016-04-27T08:55:12.228Z,16.28
2016-04-27T08:56:18.138Z,16.34
2016-04-27T08:57:12.250Z,16.31
2016-04-27T08:58:12.033Z,16.28
2016-04-27T08:59:11.974Z,16.31
2016-04-27T09:00:11.930Z,16.34
2016-04-27T09:01:12.073Z,16.36
2016-04-27T09:02:11.841Z,16.29
2016-04-27T09:03:11.953Z,16.29
2016-04-27T09:04:11.722Z,16.36
2016-04-27T09:05:11.662Z,16.34
2016-04-27T09:06:11.617Z,16.28
2016-04-27T09:07:12.511Z,16.36
2016-04-27T09:08:13.170Z,16.28
2016-04-27T09:09:11.485Z,16.31
2016-04-27T09:10:11.441Z,16.28
2016-04-27T09:11:11.397Z,16.36
2016-04-27T09:12:11.556Z,16.37
2016-04-27T09:13:11.293Z,16.31
2016-04-27T09:14:11.326Z,16.34
2016-04-27T09:15:11.204Z,16.37
2016-04-27T09:16:11.144Z,16.37
2016-04-27T09:17:14.085Z,16.31
2016-04-27T09:18:11.041Z,16.37
2016-04-27T09:19:11.012Z,16.32
2016-04-27T09:20:10.952Z,16.36
2016-04-27T09:21:10.924Z,16.25
2016-04-27T09:22:10.723Z,16.28
2016-04-27T09:23:14.226Z,16.31
2016-04-27T09:24:11.901Z,16.32
2016-04-27T09:25:10.715Z,16.32
2016-04-27T09:26:10.671Z,16.31
2016-04-27T09:27:10.658Z,16.25
2016-04-27T09:28:10.599Z,16.29
2016-04-27T09:29:10.617Z,16.28
2016-04-27T09:30:10.573Z,16.29
2016-04-27T09:31:10.700Z,16.31
2016-04-27T09:32:13.391Z,16.25
2016-04-27T09:33:10.378Z,16.29
2016-04-27T09:34:10.272Z,16.28
2016-04-27T09:35:10.211Z,16.37
2016-04-27T09:36:10.323Z,16.32
2016-04-27T09:37:14.139Z,16.37
2016-04-27T09:38:10.657Z,16.31
2016-04-27T09:39:10.175Z,16.28
2016-04-27T09:40:10.162Z,16.29
2016-04-27T09:41:10.041Z,16.28
2016-04-27T09:42:10.714Z,16.25
2016-04-27T09:43:09.889Z,16.25
2016-04-27T09:44:09.908Z,16.25
2016-04-27T09:45:09.972Z,16.29
2016-04-27T09:46:10.038Z,16.29
2016-04-27T09:47:09.666Z,16.29
2016-04-27T09:48:09.621Z,16.36
2016-04-27T09:49:09.530Z,16.29
2016-04-27T09:50:09.705Z,16.34
2016-04-27T09:51:09.552Z,16.31
2016-04-27T09:52:09.413Z,16.29
2016-04-27T09:53:09.494Z,16.34
2016-04-27T09:54:12.326Z,16.29
2016-04-27T09:55:09.281Z,16.32
2016-04-27T09:56:09.205Z,16.28
2016-04-27T09:57:09.162Z,16.36
2016-04-27T09:58:13.164Z,16.28
2016-04-27T09:59:09.073Z,16.32
2016-04-27T10:00:09.076Z,16.28
2016-04-27T10:01:09.062Z,16.29
2016-04-27T10:02:08.987Z,16.29
2016-04-27T10:03:08.959Z,16.32
2016-04-27T10:04:17.805Z,16.31
2016-04-27T10:05:08.792Z,16.34
2016-04-27T10:06:08.717Z,16.26
2016-04-27T10:07:08.814Z,16.28
2016-04-27T10:08:08.378Z,16.31
2016-04-27T10:09:08.599Z,16.37
2016-04-27T10:10:08.369Z,16.31
2016-04-27T10:11:08.527Z,16.34
2016-04-27T10:12:08.466Z,16.4
2016-04-27T10:13:08.408Z,16.26
2016-04-27T10:14:08.363Z,16.36
2016-04-27T10:15:08.319Z,16.28
2016-04-27T10:16:08.243Z,16.4
2016-04-27T10:17:08.184Z,16.39
2016-04-27T10:18:08.155Z,16.29
2016-04-27T10:19:08.096Z,16.41
2016-04-27T10:20:08.067Z,16.37
2016-04-27T10:21:11.226Z,16.41
2016-04-27T10:22:08.092Z,16.32
2016-04-27T10:23:07.780Z,16.37
2016-04-27T10:24:07.861Z,16.32
2016-04-27T10:25:07.831Z,16.26
2016-04-27T10:26:07.835Z,16.25
2016-04-27T10:27:07.728Z,16.31
2016-04-27T10:28:07.809Z,16.28
2016-04-27T10:29:07.657Z,16.34
2016-04-27T10:30:07.581Z,16.4
2016-04-27T10:31:07.553Z,16.32
2016-04-27T10:32:07.492Z,16.32
2016-04-27T10:33:07.433Z,16.32
2016-04-27T10:34:07.389Z,16.34
2016-04-27T10:35:07.329Z,16.31
2016-04-27T10:36:07.269Z,16.32
2016-04-27T10:37:07.287Z,16.34
2016-04-27T10:38:07.197Z,16.29
2016-04-27T10:39:07.324Z,16.36
2016-04-27T10:40:07.108Z,16.37
2016-04-27T10:41:10.063Z,16.31
2016-04-27T10:42:07.036Z,16.28
2016-04-27T10:43:06.991Z,16.36
2016-04-27T10:44:06.869Z,16.4
2016-04-27T10:45:06.730Z,16.37
2016-04-27T10:46:08.702Z,16.34
2016-04-27T10:47:06.783Z,16.31
2016-04-27T10:48:06.770Z,16.34
2016-04-27T10:49:06.679Z,16.32
2016-04-27T10:50:06.635Z,16.32
2016-04-27T10:51:06.560Z,16.28
2016-04-27T10:52:06.593Z,16.36
2016-04-27T10:53:07.033Z,16.28
2016-04-27T10:54:06.458Z,16.34
2016-04-27T10:55:06.399Z,16.41
2016-04-27T10:56:06.385Z,16.29
2016-04-27T10:57:08.231Z,16.36
2016-04-27T10:58:06.235Z,16.29
2016-04-27T10:59:06.315Z,16.34
2016-04-27T11:00:06.166Z,16.41
2016-04-27T11:01:06.105Z,16.26
2016-04-27T11:02:06.030Z,16.4
2016-04-27T11:03:06.580Z,16.34
2016-04-27T11:04:05.942Z,16.31
2016-04-27T11:05:05.898Z,16.39
2016-04-27T11:06:05.885Z,16.32
2016-04-27T11:07:05.871Z,16.26
2016-04-27T11:08:06.328Z,16.34
2016-04-27T11:09:06.955Z,16.32
2016-04-27T11:10:05.661Z,16.31
2016-04-27T11:11:05.680Z,16.37
2016-04-27T11:12:06.245Z,16.36
2016-04-27T11:13:05.513Z,16.39
2016-04-27T11:14:05.469Z,16.4
2016-04-27T11:15:05.424Z,16.28
2016-04-27T11:16:05.365Z,16.4
2016-04-27T11:17:05.336Z,16.32
2016-04-27T11:18:05.277Z,16.32
2016-04-27T11:19:05.217Z,16.34
2016-04-27T11:20:06.392Z,16.36
2016-04-27T11:21:05.144Z,16.31
2016-04-27T11:22:08.100Z,16.36
2016-04-27T11:23:05.415Z,16.36
2016-04-27T11:24:06.917Z,16.28
2016-04-27T11:25:04.967Z,16.37
2016-04-27T11:26:05.095Z,16.39
2016-04-27T11:27:05.644Z,16.36
2016-04-27T11:28:05.131Z,16.29
2016-04-27T11:29:04.775Z,16.39
2016-04-27T11:30:04.794Z,16.39
2016-04-27T11:31:04.687Z,16.36
2016-04-27T11:32:04.595Z,16.34
2016-04-27T11:33:04.567Z,16.34
2016-04-27T11:34:04.491Z,16.41
2016-04-27T11:35:04.510Z,16.39
2016-04-27T11:36:04.419Z,16.26
2016-04-27T11:37:04.422Z,16.28
2016-04-27T11:38:05.253Z,16.34
2016-04-27T11:39:04.161Z,16.36
2016-04-27T11:40:04.195Z,16.34
2016-04-27T11:41:04.448Z,16.36
2016-04-27T11:42:04.185Z,16.31
2016-04-27T11:43:04.172Z,16.37
2016-04-27T11:44:04.018Z,16.37
2016-04-27T11:45:04.209Z,16.37
2016-04-27T11:46:03.914Z,16.37
2016-04-27T11:47:03.948Z,16.41
2016-04-27T11:48:03.935Z,16.39
2016-04-27T11:49:03.887Z,16.43
2016-04-27T11:50:03.826Z,16.28
2016-04-27T11:51:04.029Z,16.32
2016-04-27T11:52:03.827Z,16.41
2016-04-27T11:53:03.718Z,16.36
2016-04-27T11:54:04.030Z,16.28
2016-04-27T11:55:03.971Z,16.37
2016-04-27T11:56:03.709Z,16.37
2016-04-27T11:57:03.695Z,16.37
2016-04-27T11:58:03.652Z,16.37
2016-04-27T11:59:03.820Z,16.37
2016-04-27T12:00:03.657Z,16.36
2016-04-27T12:01:03.540Z,16.36
2016-04-27T12:02:03.486Z,16.37
2016-04-27T12:03:03.323Z,16.36
2016-04-27T12:04:06.064Z,16.34
2016-04-27T12:05:03.413Z,16.31
2016-04-27T12:06:03.309Z,16.39
2016-04-27T12:07:03.266Z,16.39
2016-04-27T12:08:02.974Z,16.37
2016-04-27T12:09:03.212Z,16.34
2016-04-27T12:10:03.123Z,16.36
2016-04-27T12:11:03.158Z,16.37
2016-04-27T12:12:03.036Z,16.39
2016-04-27T12:13:02.992Z,16.37
2016-04-27T12:14:05.933Z,16.37
2016-04-27T12:15:02.936Z,16.36
2016-04-27T12:16:02.861Z,16.41
2016-04-27T12:17:03.255Z,16.36
2016-04-27T12:18:02.820Z,16.28
2016-04-27T12:19:02.838Z,16.41
2016-04-27T12:20:02.686Z,16.37
2016-04-27T12:21:02.641Z,16.36
2016-04-27T12:22:02.424Z,16.25
2016-04-27T12:23:03.099Z,16.39
2016-04-27T12:24:03.837Z,16.36
2016-04-27T12:25:02.402Z,16.43
2016-04-27T12:26:02.655Z,16.37
2016-04-27T12:27:02.423Z,16.36
2016-04-27T12:28:02.644Z,16.41
2016-04-27T12:29:02.365Z,16.31
2016-04-27T12:30:02.696Z,16.39
2016-04-27T12:31:02.480Z,16.37
2016-04-27T12:32:02.280Z,16.28
2016-04-27T12:33:02.439Z,16.37
2016-04-27T12:34:02.207Z,16.39
2016-04-27T12:35:02.148Z,16.36
2016-04-27T12:36:02.118Z,16.4
2016-04-27T12:37:01.825Z,16.37
2016-04-27T12:38:03.890Z,16.41
2016-04-27T12:39:02.737Z,16.37
2016-04-27T12:40:01.709Z,16.43
2016-04-27T12:41:01.648Z,16.4
2016-04-27T12:42:01.620Z,16.41
2016-04-27T12:43:01.591Z,16.4
2016-04-27T12:44:01.515Z,16.41
2016-04-27T12:45:04.550Z,16.47
2016-04-27T12:46:01.442Z,16.39
2016-04-27T12:47:01.383Z,16.47
2016-04-27T12:48:01.308Z,16.43
2016-04-27T12:49:01.513Z,16.4
2016-04-27T12:50:01.172Z,16.4
2016-04-27T12:51:01.269Z,16.41
2016-04-27T12:52:04.146Z,16.5
2016-04-27T12:53:01.071Z,16.51
2016-04-27T12:54:01.917Z,16.39